This is the latest recevied weather packets stored in our database for station/object OM6ABF-11. If no packets are shown the sender has not sent any weather packets the latest 10 day(s).
| Time | Temp. | Humidity | Pressure | Rain* | Wind** | Luminosity | Snow |
|---|---|---|---|---|---|---|---|
| 1777603642 | 0.56° C | 64% | 1029 hPa | - | - | - | - |
| 1777602742 | 0° C | 65% | 1029.2 hPa | - | - | - | - |
| 1777601843 | 0° C | 66% | 1029.1 hPa | - | - | - | - |
| 1777600943 | -0.56° C | 68% | 1029 hPa | - | - | - | - |
| 1777600043 | -0.56° C | 69% | 1029.1 hPa | - | - | - | - |
| 1777599145 | -0.56° C | 68% | 1029.2 hPa | - | - | - | - |
| 1777598246 | -0.56° C | 64% | 1029.1 hPa | - | - | - | - |
| 1777597348 | -1.11° C | 68% | 1029.2 hPa | - | - | - | - |
| 1777596449 | -1.11° C | 67% | 1029.2 hPa | - | - | - | - |
| 1777595549 | -1.11° C | 67% | 1029.2 hPa | - | - | - | - |
| 1777594650 | -0.56° C | 65% | 1029.2 hPa | - | - | - | - |
| 1777593750 | -1.11° C | 68% | 1029.1 hPa | - | - | - | - |
| 1777592850 | -1.11° C | 65% | 1029.2 hPa | - | - | - | - |
| 1777591951 | -1.11° C | 64% | 1029.2 hPa | - | - | - | - |
| 1777591051 | -0.56° C | 63% | 1029.2 hPa | - | - | - | - |
| 1777590153 | 0° C | 59% | 1029.1 hPa | - | - | - | - |
| 1777589254 | -0.56° C | 64% | 1029.3 hPa | - | - | - | - |
| 1777588354 | 0° C | 59% | 1029.3 hPa | - | - | - | - |
| 1777587456 | 1.11° C | 51% | 1029.2 hPa | - | - | - | - |
| 1777586557 | 1.11° C | 51% | 1029.1 hPa | - | - | - | - |
| 1777585657 | 1.11° C | 53% | 1029.1 hPa | - | - | - | - |
| 1777584758 | 1.11° C | 54% | 1029.1 hPa | - | - | - | - |
| 1777583858 | 1.67° C | 51% | 1029 hPa | - | - | - | - |
| 1777582962 | 2.22° C | 48% | 1028.9 hPa | - | - | - | - |
| 1777582063 | 2.22° C | 49% | 1028.8 hPa | - | - | - | - |
* Rain since midnight (hover to see other rain measurements)
** Current wind speed in m/s (hover to see current wind gust speed)